AEZ2350 LIEE-LIML
Flight info
| Callsign | AEZ2350 |
|---|---|
| Flight time | 1h 10m |
| Altitude | 30000 |
| Route | KOVAS DCT DEXUL DCT GIGGI DCT UPDUT DCT CORSI DCT OKROK DCT AKUTI DCT TORTU DCT ERTEV DCT OLETI DCT ITCAP |
| Aircraft | A319/M-SDE3FGHIRWY/LB1 |
Departure
| Time | 2026-05-04 07:09 |
|---|---|
| Airport | Cagliari Elmas Airport (LIEE) |
Arrival
| Time | 2026-05-04 08:19 |
|---|---|
| Airport | Milano Linate Airport (LIML) |
| Time | Latitude | Longitude | Altitude | Speed | Heading |
|---|---|---|---|---|---|
| 2026-05-04 06:58 | 39.25231 | 9.05901 | 20 ft | 0 kts | 7° |
| 2026-05-04 06:59 | 39.25230 | 9.05901 | 20 ft | 1 kts | 7° |
| 2026-05-04 06:59 | 39.25216 | 9.05899 | 20 ft | 2 kts | 7° |
| 2026-05-04 06:59 | 39.25201 | 9.05897 | 20 ft | 2 kts | 7° |
| 2026-05-04 06:59 | 39.25186 | 9.05894 | 20 ft | 2 kts | 7° |
| 2026-05-04 07:01 | 39.25124 | 9.05914 | 20 ft | 0 kts | 318° |
| 2026-05-04 07:04 | 39.25129 | 9.05908 | 20 ft | 2 kts | 318° |
| 2026-05-04 07:04 | 39.25149 | 9.05876 | 20 ft | 6 kts | 292° |
| 2026-05-04 07:05 | 39.25137 | 9.05804 | 20 ft | 10 kts | 246° |
| 2026-05-04 07:05 | 39.25149 | 9.05706 | 20 ft | 13 kts | 312° |
| 2026-05-04 07:05 | 39.25226 | 9.05612 | 20 ft | 16 kts | 317° |
| 2026-05-04 07:05 | 39.25320 | 9.05504 | 20 ft | 19 kts | 317° |
| 2026-05-04 07:06 | 39.25542 | 9.05244 | 20 ft | 23 kts | 320° |
| 2026-05-04 07:06 | 39.25669 | 9.05098 | 20 ft | 25 kts | 318° |
| 2026-05-04 07:06 | 39.25803 | 9.04945 | 20 ft | 26 kts | 317° |
| 2026-05-04 07:07 | 39.25943 | 9.04784 | 20 ft | 27 kts | 319° |
| 2026-05-04 07:08 | 39.25962 | 9.04484 | 20 ft | 42 kts | 135° |
| 2026-05-04 07:09 | 39.25546 | 9.04967 | 20 ft | 115 kts | 138° |
| 2026-05-04 07:09 | 39.24827 | 9.05800 | 106 ft | 163 kts | 139° |
| 2026-05-04 07:09 | 39.23970 | 9.06785 | 773 ft | 166 kts | 137° |
| 2026-05-04 07:09 | 39.23110 | 9.07769 | 1579 ft | 166 kts | 136° |
| 2026-05-04 07:10 | 39.22274 | 9.08727 | 2405 ft | 162 kts | 136° |
| 2026-05-04 07:10 | 39.21414 | 9.09716 | 2951 ft | 176 kts | 138° |
| 2026-05-04 07:12 | 39.13623 | 9.06980 | 7933 ft | 233 kts | 256° |
| 2026-05-04 07:12 | 39.13659 | 9.04925 | 8796 ft | 235 kts | 286° |
| 2026-05-04 07:12 | 39.14457 | 9.03055 | 9427 ft | 251 kts | 307° |
| 2026-05-04 07:12 | 39.15812 | 9.01510 | 9978 ft | 269 kts | 319° |
| 2026-05-04 07:13 | 39.17319 | 9.00008 | 10488 ft | 282 kts | 317° |
| 2026-05-04 07:13 | 39.18828 | 8.98366 | 11284 ft | 284 kts | 315° |
| 2026-05-04 07:13 | 39.20157 | 8.96827 | 12081 ft | 283 kts | 315° |
| 2026-05-04 07:14 | 39.27757 | 8.92743 | 14601 ft | 324 kts | 354° |
| 2026-05-04 07:14 | 39.30114 | 8.92605 | 14912 ft | 341 kts | 354° |
| 2026-05-04 07:15 | 39.32592 | 8.92454 | 15209 ft | 358 kts | 353° |
| 2026-05-04 07:15 | 39.35171 | 8.92282 | 15585 ft | 371 kts | 353° |
| 2026-05-04 07:15 | 39.37843 | 8.92097 | 16207 ft | 375 kts | 353° |
| 2026-05-04 07:15 | 39.40538 | 8.91950 | 16845 ft | 381 kts | 358° |
| 2026-05-04 07:16 | 39.43252 | 8.92418 | 17461 ft | 391 kts | 10° |
| 2026-05-04 07:16 | 39.45905 | 8.93682 | 18066 ft | 400 kts | 22° |
| 2026-05-04 07:16 | 39.48411 | 8.95411 | 18653 ft | 404 kts | 25° |
| 2026-05-04 07:16 | 39.50904 | 8.97227 | 19213 ft | 409 kts | 26° |
| 2026-05-04 07:17 | 39.53481 | 8.99109 | 19761 ft | 413 kts | 25° |
| 2026-05-04 07:17 | 39.56036 | 9.00957 | 20299 ft | 415 kts | 25° |
| 2026-05-04 07:17 | 39.58642 | 9.02827 | 20788 ft | 418 kts | 24° |
| 2026-05-04 07:17 | 39.61274 | 9.04703 | 21236 ft | 422 kts | 24° |
| 2026-05-04 07:18 | 39.63974 | 9.06386 | 21723 ft | 423 kts | 18° |
| 2026-05-04 07:18 | 39.66803 | 9.07766 | 22213 ft | 423 kts | 13° |
| 2026-05-04 07:18 | 39.69704 | 9.08842 | 22688 ft | 425 kts | 9° |
| 2026-05-04 07:18 | 39.72614 | 9.09811 | 23158 ft | 427 kts | 8° |
| 2026-05-04 07:19 | 39.75570 | 9.10779 | 23593 ft | 432 kts | 8° |
| 2026-05-04 07:19 | 39.78535 | 9.11758 | 24055 ft | 434 kts | 8° |
| 2026-05-04 07:19 | 39.81499 | 9.12750 | 24531 ft | 437 kts | 8° |
| 2026-05-04 07:19 | 39.84502 | 9.13611 | 24965 ft | 436 kts | 4° |
| 2026-05-04 07:20 | 39.87492 | 9.14190 | 25388 ft | 436 kts | 0° |
| 2026-05-04 07:20 | 39.90551 | 9.14502 | 25817 ft | 435 kts | 356° |
| 2026-05-04 07:20 | 39.93574 | 9.14675 | 26213 ft | 438 kts | 356° |
| 2026-05-04 07:20 | 39.96614 | 9.14822 | 26607 ft | 440 kts | 355° |
| 2026-05-04 07:22 | 40.17961 | 9.15909 | 29834 ft | 442 kts | 355° |
| 2026-05-04 07:22 | 40.21027 | 9.16030 | 30063 ft | 442 kts | 353° |
| 2026-05-04 07:23 | 40.27110 | 9.15562 | 30069 ft | 435 kts | 346° |
| 2026-05-04 07:23 | 40.33022 | 9.14104 | 30068 ft | 431 kts | 340° |
| 2026-05-04 07:24 | 40.38861 | 9.12275 | 30074 ft | 433 kts | 340° |
| 2026-05-04 07:24 | 40.44691 | 9.10434 | 30071 ft | 432 kts | 340° |
| 2026-05-04 07:26 | 40.68045 | 9.03061 | 30072 ft | 432 kts | 340° |
| 2026-05-04 07:27 | 40.73877 | 9.01214 | 30065 ft | 433 kts | 340° |
| 2026-05-04 07:27 | 40.79739 | 8.99354 | 30068 ft | 433 kts | 340° |
| 2026-05-04 07:28 | 40.85580 | 8.97498 | 30066 ft | 434 kts | 340° |
| 2026-05-04 07:28 | 40.91441 | 8.95631 | 30066 ft | 434 kts | 340° |
| 2026-05-04 07:29 | 40.97302 | 8.93761 | 30065 ft | 433 kts | 340° |
| 2026-05-04 07:29 | 41.03140 | 8.91894 | 30072 ft | 433 kts | 340° |
| 2026-05-04 07:30 | 41.09009 | 8.90011 | 30070 ft | 435 kts | 340° |
| 2026-05-04 07:30 | 41.14916 | 8.88115 | 30060 ft | 435 kts | 341° |
| 2026-05-04 07:31 | 41.20808 | 8.86224 | 30060 ft | 434 kts | 340° |
| 2026-05-04 07:33 | 41.41718 | 8.81650 | 30054 ft | 448 kts | 356° |
| 2026-05-04 07:33 | 41.44807 | 8.81814 | 30054 ft | 449 kts | 357° |
| 2026-05-04 07:33 | 41.51062 | 8.82172 | 30056 ft | 448 kts | 357° |
| 2026-05-04 07:34 | 41.57264 | 8.82515 | 30052 ft | 448 kts | 357° |
| 2026-05-04 07:34 | 41.63535 | 8.82852 | 30053 ft | 449 kts | 357° |
| 2026-05-04 07:35 | 41.69803 | 8.83185 | 30060 ft | 449 kts | 357° |
| 2026-05-04 07:35 | 41.76060 | 8.83517 | 30062 ft | 449 kts | 358° |
| 2026-05-04 07:36 | 41.82355 | 8.83852 | 30066 ft | 448 kts | 358° |
| 2026-05-04 07:38 | 42.07423 | 8.85189 | 30072 ft | 451 kts | 358° |
| 2026-05-04 07:38 | 42.13686 | 8.85522 | 30079 ft | 452 kts | 358° |
| 2026-05-04 07:39 | 42.20003 | 8.85863 | 30085 ft | 452 kts | 358° |
| 2026-05-04 07:39 | 42.26272 | 8.86202 | 30083 ft | 453 kts | 358° |
| 2026-05-04 07:40 | 42.32581 | 8.86542 | 30087 ft | 452 kts | 359° |
| 2026-05-04 07:40 | 42.38850 | 8.86878 | 30084 ft | 453 kts | 359° |
| 2026-05-04 07:41 | 42.45175 | 8.87220 | 30083 ft | 454 kts | 359° |
| 2026-05-04 07:41 | 42.51537 | 8.87566 | 30070 ft | 454 kts | 359° |
| 2026-05-04 07:42 | 42.57951 | 8.87913 | 30082 ft | 455 kts | 359° |
| 2026-05-04 07:42 | 42.64368 | 8.88265 | 30075 ft | 456 kts | 359° |
| 2026-05-04 07:43 | 42.70704 | 8.88608 | 30071 ft | 456 kts | 359° |
| 2026-05-04 07:43 | 42.77081 | 8.88956 | 30069 ft | 456 kts | 360° |
| 2026-05-04 07:44 | 42.83403 | 8.89442 | 30058 ft | 456 kts | 2° |
| 2026-05-04 07:44 | 42.89735 | 8.90178 | 30063 ft | 456 kts | 2° |
| 2026-05-04 07:45 | 42.96051 | 8.90924 | 30061 ft | 456 kts | 2° |
| 2026-05-04 07:45 | 43.02387 | 8.91667 | 30062 ft | 457 kts | 3° |
| 2026-05-04 07:46 | 43.08722 | 8.92408 | 30065 ft | 458 kts | 2° |
| 2026-05-04 07:46 | 43.15099 | 8.93154 | 30059 ft | 458 kts | 3° |
| 2026-05-04 07:47 | 43.21462 | 8.93898 | 30058 ft | 458 kts | 3° |
| 2026-05-04 07:49 | 43.46939 | 8.95872 | 30066 ft | 458 kts | 358° |
| 2026-05-04 07:49 | 43.53317 | 8.95848 | 30069 ft | 459 kts | 358° |
| 2026-05-04 07:50 | 43.59729 | 8.95889 | 30072 ft | 460 kts | 0° |
| 2026-05-04 07:50 | 43.66094 | 8.96641 | 30080 ft | 462 kts | 7° |
| 2026-05-04 07:51 | 43.72390 | 8.98303 | 30085 ft | 462 kts | 10° |
| 2026-05-04 07:51 | 43.78686 | 9.00174 | 30087 ft | 461 kts | 9° |
| 2026-05-04 07:52 | 43.85033 | 9.01393 | 30066 ft | 458 kts | 4° |
| 2026-05-04 07:52 | 43.88150 | 9.01778 | 29594 ft | 447 kts | 3° |
| 2026-05-04 07:52 | 43.91218 | 9.02133 | 28160 ft | 447 kts | 3° |
| 2026-05-04 07:53 | 43.93024 | 9.02338 | 26993 ft | 453 kts | 3° |
| 2026-05-04 07:54 | 44.14497 | 9.04874 | 22998 ft | 433 kts | 4° |
| 2026-05-04 07:55 | 44.17488 | 9.05232 | 22474 ft | 429 kts | 4° |
| 2026-05-04 07:55 | 44.20443 | 9.05586 | 21954 ft | 425 kts | 4° |
| 2026-05-04 07:55 | 44.23368 | 9.05938 | 21435 ft | 421 kts | 4° |
| 2026-05-04 07:55 | 44.26262 | 9.06285 | 20910 ft | 417 kts | 4° |
| 2026-05-04 07:56 | 44.29151 | 9.06631 | 20394 ft | 413 kts | 4° |
| 2026-05-04 07:56 | 44.31978 | 9.06972 | 19888 ft | 409 kts | 4° |
| 2026-05-04 07:56 | 44.34809 | 9.07316 | 19378 ft | 404 kts | 4° |
| 2026-05-04 07:56 | 44.37582 | 9.07650 | 18878 ft | 401 kts | 4° |
| 2026-05-04 07:57 | 44.40379 | 9.07991 | 18370 ft | 399 kts | 5° |
| 2026-05-04 07:57 | 44.43092 | 9.08491 | 17861 ft | 396 kts | 8° |
| 2026-05-04 07:57 | 44.45790 | 9.09219 | 17353 ft | 394 kts | 11° |
| 2026-05-04 07:57 | 44.48451 | 9.10023 | 16837 ft | 393 kts | 12° |
| 2026-05-04 07:58 | 44.51121 | 9.10846 | 16312 ft | 392 kts | 12° |
| 2026-05-04 07:58 | 44.53765 | 9.11663 | 15975 ft | 386 kts | 12° |
| 2026-05-04 07:58 | 44.56384 | 9.12469 | 15766 ft | 380 kts | 11° |
| 2026-05-04 07:58 | 44.58938 | 9.13250 | 15574 ft | 376 kts | 12° |
| 2026-05-04 07:59 | 44.61517 | 9.14042 | 15388 ft | 376 kts | 12° |
| 2026-05-04 07:59 | 44.64066 | 9.14824 | 15215 ft | 374 kts | 12° |
| 2026-05-04 07:59 | 44.66586 | 9.15597 | 15057 ft | 372 kts | 12° |
| 2026-05-04 07:59 | 44.69099 | 9.16369 | 14856 ft | 361 kts | 12° |
| 2026-05-04 08:00 | 44.71502 | 9.17104 | 14748 ft | 348 kts | 12° |
| 2026-05-04 08:00 | 44.73856 | 9.17827 | 14464 ft | 341 kts | 12° |
| 2026-05-04 08:00 | 44.76144 | 9.18529 | 14136 ft | 334 kts | 11° |
| 2026-05-04 08:02 | 44.82941 | 9.33235 | 13097 ft | 286 kts | 91° |
| 2026-05-04 08:02 | 44.83035 | 9.36038 | 13093 ft | 287 kts | 90° |
| 2026-05-04 08:02 | 44.83163 | 9.38832 | 13100 ft | 287 kts | 89° |
| 2026-05-04 08:03 | 44.83309 | 9.41656 | 13097 ft | 287 kts | 89° |
| 2026-05-04 08:03 | 44.83455 | 9.44433 | 13091 ft | 286 kts | 89° |
| 2026-05-04 08:03 | 44.83657 | 9.47247 | 13085 ft | 289 kts | 81° |
| 2026-05-04 08:03 | 44.84295 | 9.49941 | 13095 ft | 293 kts | 66° |
| 2026-05-04 08:04 | 44.85300 | 9.52458 | 13068 ft | 294 kts | 61° |
| 2026-05-04 08:04 | 44.86377 | 9.54921 | 12716 ft | 295 kts | 60° |
| 2026-05-04 08:04 | 44.87441 | 9.57352 | 12399 ft | 291 kts | 60° |
| 2026-05-04 08:04 | 44.88494 | 9.59760 | 12292 ft | 280 kts | 57° |
| 2026-05-04 08:05 | 44.89872 | 9.61607 | 12150 ft | 274 kts | 26° |
| 2026-05-04 08:05 | 44.91697 | 9.62143 | 11865 ft | 270 kts | 356° |
| 2026-05-04 08:05 | 44.93568 | 9.61859 | 11583 ft | 268 kts | 350° |
| 2026-05-04 08:05 | 44.95416 | 9.61478 | 11294 ft | 266 kts | 351° |
| 2026-05-04 08:06 | 44.97220 | 9.61043 | 10974 ft | 264 kts | 338° |
| 2026-05-04 08:06 | 44.98673 | 9.59601 | 10656 ft | 255 kts | 301° |
| 2026-05-04 08:06 | 44.99293 | 9.57315 | 10368 ft | 245 kts | 270° |
| 2026-05-04 08:06 | 44.99188 | 9.54969 | 10100 ft | 240 kts | 260° |
| 2026-05-04 08:08 | 44.98192 | 9.38735 | 8152 ft | 235 kts | 262° |
| 2026-05-04 08:08 | 44.98079 | 9.36447 | 7861 ft | 235 kts | 266° |
| 2026-05-04 08:10 | 45.09622 | 9.31472 | 5673 ft | 235 kts | 355° |
| 2026-05-04 08:11 | 45.11211 | 9.31308 | 5428 ft | 233 kts | 355° |
| 2026-05-04 08:11 | 45.14371 | 9.30962 | 5009 ft | 227 kts | 355° |
| 2026-05-04 08:11 | 45.15939 | 9.30787 | 4813 ft | 226 kts | 355° |
| 2026-05-04 08:12 | 45.17502 | 9.30615 | 4614 ft | 224 kts | 356° |
| 2026-05-04 08:12 | 45.19066 | 9.30448 | 4415 ft | 222 kts | 356° |
| 2026-05-04 08:12 | 45.20602 | 9.30283 | 4221 ft | 221 kts | 356° |
| 2026-05-04 08:12 | 45.22138 | 9.30119 | 4131 ft | 220 kts | 356° |
| 2026-05-04 08:13 | 45.23648 | 9.29956 | 4066 ft | 216 kts | 356° |
| 2026-05-04 08:13 | 45.25147 | 9.29794 | 3827 ft | 214 kts | 356° |
| 2026-05-04 08:13 | 45.26635 | 9.29634 | 3549 ft | 214 kts | 356° |
| 2026-05-04 08:13 | 45.28119 | 9.29473 | 3270 ft | 214 kts | 356° |
| 2026-05-04 08:14 | 45.29597 | 9.29313 | 2989 ft | 213 kts | 356° |
| 2026-05-04 08:14 | 45.31057 | 9.29155 | 2713 ft | 212 kts | 355° |
| 2026-05-04 08:14 | 45.32527 | 9.28996 | 2497 ft | 204 kts | 355° |
| 2026-05-04 08:16 | 45.40295 | 9.28162 | 966 ft | 132 kts | 354° |
| 2026-05-04 08:16 | 45.41201 | 9.28065 | 794 ft | 132 kts | 354° |
| 2026-05-04 08:16 | 45.42127 | 9.27966 | 621 ft | 132 kts | 354° |
| 2026-05-04 08:17 | 45.43037 | 9.27869 | 463 ft | 131 kts | 354° |
| 2026-05-04 08:17 | 45.43934 | 9.27790 | 349 ft | 122 kts | 355° |
| 2026-05-04 08:17 | 45.44630 | 9.27696 | 355 ft | 76 kts | 354° |
| 2026-05-04 08:17 | 45.45052 | 9.27651 | 358 ft | 55 kts | 355° |
| 2026-05-04 08:19 | 45.45773 | 9.27869 | 362 ft | 3 kts | 90° |
| 2026-05-04 08:19 | 45.45773 | 9.27891 | 362 ft | 1 kts | 89° |
| 2026-05-04 08:20 | 45.45773 | 9.27900 | 362 ft | 0 kts | 89° |